Tuesday, March 03, 2015
15:01 UTC
  |  Log In   |  Register Free
Airport Search:

Heart Of Georgia Regional Airport
(KEZM)

FAA data valid effective January 08, 2015 - March 05, 2015 (unless otherwise noted).

 
 
 
 
 
 
 
 
 
 
 
 
 
 

Current Aviation Weather for Heart Of Georgia Regional Airport (KEZM)

The most recent METAR observation for KEZM was updated at: 1409
METAR Summary (Translated METAR)
KEZM
031355Z AUTO 00000KT 10SM OVC020 17/17 A3026 RMK AO2 T01700170
KDBN
031355Z AUTO 00000KT 10SM OVC019 A3026 RMK AO2
(22.1 nm NE from KEZM)
KAZE
031355Z AUTO 00000KT 10SM SCT029 BKN080 17/17 A3023 RMK AO2 T01720172
(31.6 nm SE from KEZM)
TAF
No TAF information found within 50 nm of KEZM
  Airport Weather Conditions for KEZM

 Current Weather at EZM
63° F
Overcast
North winds at 0.0 mph
EZM NOAA Radar

Pressure: 30.26 in
Humidity: 100%
Wind: Calm
Dew Point: 62.6°F
Visibility: 10.00 mi


Airport Weather Forecast for KEZM

Translated METAR and TAF for KEZM
Translated METAR for KEZM (1501 UTC 03 March 2015)
found at http://aviationweather.gov/adds/metars/
 
METAR text: KEZM 031455Z AUTO 13004KT 10SM OVC020 19/18 A3026 RMK AO2 T01910184
Conditions at: KEZM (EASTMAN , GA, US) observed 1455 UTC 03 March 2015
Temperature: 19.1°C (66°F)
Dewpoint: 18.4°C (65°F) [RH = 96%]
Pressure (altimeter): 30.26 inches Hg (1024.8 mb)
Winds: from the SE (130 degrees) at 5 MPH (4 knots; 2.1 m/s)
Visibility: 10 or more miles (16+ km)
Ceiling: 2000 feet AGL
Clouds: overcast cloud deck at 2000 feet AGL
Weather: automated observation with no human augmentation;
there may or may not be significant weather present at this time
Translated TAF for KEZM

There is no translated TAF available for this airport

Find All Airport Services Find A Hotel Find A Rental Car Find A Golf Course Find A Restaurant $100 Hamburger



FBO's on the Field
FBO Company Facility Photos Services Transportation Aviation Fuel Prices: Prices include tax
Catering Weather Repair Courtesy Rental Type 100LL JetA JetA+ MOGAS 8087
 
Heart of Georgia Regional Airport

This FBO has not yet been rated
FS:Phillips 66
Last Updated: Feb-12
Login to update fuel prices
SS:
Contact Heart of Georgia Regional AirportMore FBO Information
 
Add another FBO Facility Photos Catering Weather Repair Courtesy Rental Type 100LL JetA JetA+ MOGAS 8087
Services Transportation Aviation Fuel Prices: Prices include tax


model-print
model-print
model-print
model-print